Time;durP1;ratioP1;P1;durP2;ratioP2;P2;SDS_P1;SDS_P2;PMS_P1;PMS_P2;Temp;Humidity;BMP_temperature;BMP_pressure;BME280_temperature;BME280_humidity;BME280_pressure;Samples;Min_cycle;Max_cycle;Signal;HPM_P1;HPM_P2
2023/06/30 00:01:39;;;;;;;6.43;1.20;;;13.60;99.90;;;;;;4857303;29;20061;-62
2023/06/30 00:04:07;;;;;;;7.30;1.42;;;13.60;99.90;;;;;;4855480;29;20478;-68
2023/06/30 00:06:35;;;;;;;5.30;1.10;;;13.60;99.90;;;;;;4856686;29;20053;-68
2023/06/30 00:09:04;;;;;;;6.88;1.35;;;13.70;99.90;;;;;;4855489;29;20046;-67
2023/06/30 00:11:31;;;;;;;3.85;1.08;;;13.60;99.90;;;;;;4854424;29;20045;-62
2023/06/30 00:13:59;;;;;;;4.07;1.40;;;13.70;99.90;;;;;;4849750;29;20042;-66
2023/06/30 00:16:27;;;;;;;7.05;1.40;;;13.70;99.90;;;;;;4839735;29;20049;-68
2023/06/30 00:18:55;;;;;;;4.60;1.27;;;13.70;99.90;;;;;;4849621;29;20049;-69
2023/06/30 00:21:23;;;;;;;7.85;1.25;;;13.70;99.90;;;;;;4858156;29;20049;-68
2023/06/30 00:23:51;;;;;;;5.45;1.60;;;13.70;99.90;;;;;;4854964;29;20478;-68
2023/06/30 00:26:19;;;;;;;4.63;1.25;;;13.70;99.90;;;;;;4855693;29;20076;-68
2023/06/30 00:28:47;;;;;;;4.65;0.95;;;13.60;99.90;;;;;;4854786;29;20068;-68
2023/06/30 00:31:14;;;;;;;4.82;1.00;;;13.60;99.90;;;;;;4856683;29;20053;-69
2023/06/30 00:33:53;;;;;;;5.57;1.00;;;13.70;99.90;;;;;;4855832;29;20052;-60
2023/06/30 00:36:21;;;;;;;7.57;1.52;;;13.70;99.90;;;;;;4853374;29;20514;-61
2023/06/30 00:38:51;;;;;;;5.28;1.23;;;13.70;99.90;;;;;;4854324;29;20057;-63
2023/06/30 00:41:19;;;;;;;14.10;1.60;;;13.70;99.90;;;;;;4854652;29;20046;-63
2023/06/30 00:43:47;;;;;;;6.00;1.60;;;13.70;99.90;;;;;;4838236;29;20045;-60
2023/06/30 00:46:17;;;;;;;4.97;1.40;;;13.60;99.90;;;;;;4853591;29;20054;-60
2023/06/30 00:48:45;;;;;;;10.37;1.10;;;13.60;99.90;;;;;;4853966;29;20050;-60
2023/06/30 00:51:14;;;;;;;3.72;1.10;;;13.60;99.90;;;;;;4854690;29;20041;-64
2023/06/30 00:53:42;;;;;;;6.65;1.20;;;13.60;99.90;;;;;;4854766;29;20058;-60
2023/06/30 00:56:10;;;;;;;5.93;1.08;;;13.50;99.90;;;;;;4869060;29;20054;-60
2023/06/30 00:58:38;;;;;;;6.45;0.98;;;13.50;99.90;;;;;;4854938;29;20049;-61
2023/06/30 01:01:30;;;;;;;5.55;1.13;;;13.50;99.90;;;;;;4838043;29;20506;-60
2023/06/30 01:04:18;;;;;;;6.30;1.10;;;13.40;99.90;;;;;;4851924;29;20045;-62
2023/06/30 01:07:00;;;;;;;7.32;1.55;;;13.40;99.90;;;;;;4837493;29;20057;-60
2023/06/30 01:09:35;;;;;;;4.78;1.27;;;13.30;99.90;;;;;;4855005;29;20494;-60
2023/06/30 01:12:04;;;;;;;4.97;1.27;;;13.30;99.90;;;;;;4839906;29;20057;-60
2023/06/30 01:14:34;;;;;;;9.02;1.55;;;13.30;99.90;;;;;;4849171;29;20046;-59
2023/06/30 01:17:04;;;;;;;4.30;1.60;;;13.30;99.90;;;;;;4852255;29;20069;-63
2023/06/30 01:19:44;;;;;;;4.88;1.63;;;13.30;99.90;;;;;;4855672;29;20498;-59
2023/06/30 01:22:41;;;;;;;5.45;1.63;;;13.30;99.90;;;;;;4855592;29;20060;-62
2023/06/30 01:25:14;;;;;;;4.72;1.33;;;13.30;99.90;;;;;;4855834;29;20064;-61
2023/06/30 01:27:42;;;;;;;3.03;1.20;;;13.30;99.90;;;;;;4839372;29;20070;-60
2023/06/30 01:30:13;;;;;;;5.73;1.37;;;13.40;99.90;;;;;;4849174;29;20057;-60
2023/06/30 01:32:43;;;;;;;7.90;1.42;;;13.40;99.90;;;;;;4852344;29;20319;-60
2023/06/30 01:35:11;;;;;;;4.50;1.48;;;13.40;99.90;;;;;;4854586;29;20040;-60
2023/06/30 01:37:39;;;;;;;4.35;1.27;;;13.40;99.90;;;;;;4858880;29;20049;-61
2023/06/30 01:40:07;;;;;;;3.30;1.48;;;13.50;99.90;;;;;;4850232;29;20407;-61
2023/06/30 01:42:36;;;;;;;4.47;1.55;;;13.50;99.90;;;;;;4858385;29;20076;-61
2023/06/30 01:45:06;;;;;;;6.03;1.77;;;13.50;99.90;;;;;;4857539;29;20036;-62
2023/06/30 01:47:36;;;;;;;6.10;1.70;;;13.60;99.90;;;;;;4859032;29;20068;-64
2023/06/30 01:50:05;;;;;;;6.38;1.67;;;13.60;99.90;;;;;;4861724;29;20473;-60
2023/06/30 01:52:33;;;;;;;8.27;1.48;;;13.60;99.90;;;;;;4876983;29;20486;-61
2023/06/30 01:55:03;;;;;;;10.65;1.88;;;13.60;99.90;;;;;;4858125;29;20053;-60
2023/06/30 01:57:31;;;;;;;4.60;1.80;;;13.70;99.90;;;;;;4851942;29;20053;-60
2023/06/30 01:59:58;;;;;;;6.72;1.60;;;13.70;99.90;;;;;;4861027;29;20060;-60
2023/06/30 02:02:26;;;;;;;4.90;1.73;;;13.70;99.90;;;;;;4860420;29;20054;-61
2023/06/30 02:04:54;;;;;;;7.78;1.45;;;13.70;99.90;;;;;;4860875;29;20046;-59
2023/06/30 02:07:23;;;;;;;6.50;1.40;;;13.80;99.90;;;;;;4860150;29;20037;-60
2023/06/30 02:09:51;;;;;;;4.27;1.43;;;13.70;99.90;;;;;;4878363;29;20042;-59
2023/06/30 02:12:19;;;;;;;6.40;1.52;;;13.70;99.90;;;;;;4876184;29;20061;-59
2023/06/30 02:14:46;;;;;;;7.68;2.67;;;13.80;99.90;;;;;;4860364;29;20049;-60
2023/06/30 02:17:14;;;;;;;6.43;2.20;;;13.80;99.90;;;;;;4876320;29;20049;-60
2023/06/30 02:19:44;;;;;;;3.22;1.33;;;13.80;99.90;;;;;;4858138;29;20418;-60
2023/06/30 02:22:12;;;;;;;7.10;1.98;;;13.80;99.90;;;;;;4875118;29;20053;-60
2023/06/30 02:24:40;;;;;;;7.47;1.30;;;13.70;99.90;;;;;;4861565;29;20061;-60
2023/06/30 02:27:08;;;;;;;5.10;1.70;;;13.70;99.90;;;;;;4862172;29;20318;-60
2023/06/30 02:29:36;;;;;;;8.73;1.65;;;13.70;99.90;;;;;;4875450;29;20042;-60
2023/06/30 02:32:06;;;;;;;6.20;1.87;;;13.70;99.90;;;;;;4861107;29;20042;-61
2023/06/30 02:34:33;;;;;;;6.78;1.48;;;13.70;99.90;;;;;;4860541;29;20069;-60
2023/06/30 02:37:03;;;;;;;3.30;1.35;;;13.70;99.90;;;;;;4858574;29;20049;-60
2023/06/30 02:39:32;;;;;;;7.95;1.85;;;13.70;99.90;;;;;;4875515;29;20037;-61
2023/06/30 02:41:59;;;;;;;5.25;1.45;;;13.60;99.90;;;;;;4860542;29;20045;-60
2023/06/30 02:44:27;;;;;;;8.25;1.50;;;13.60;99.90;;;;;;4844408;29;20058;-60
2023/06/30 02:46:55;;;;;;;4.93;1.77;;;13.60;99.90;;;;;;4857498;29;20046;-61
2023/06/30 02:49:23;;;;;;;15.07;2.45;;;13.60;99.90;;;;;;4859042;29;22186;-60
2023/06/30 02:51:51;;;;;;;5.38;1.40;;;13.50;99.90;;;;;;4861340;29;20049;-60
2023/06/30 02:54:19;;;;;;;8.82;1.75;;;13.50;99.90;;;;;;4860880;29;20050;-60
2023/06/30 02:56:46;;;;;;;1.73;1.25;;;13.50;99.90;;;;;;4861178;29;20065;-60
2023/06/30 02:59:14;;;;;;;7.43;1.85;;;13.50;99.90;;;;;;4858065;29;20755;-60
2023/06/30 03:01:42;;;;;;;4.70;2.00;;;13.40;99.90;;;;;;4859400;29;20057;-60
2023/06/30 03:04:10;;;;;;;11.68;2.22;;;13.40;99.90;;;;;;4855297;29;20041;-60
2023/06/30 03:06:38;;;;;;;7.05;1.98;;;13.40;99.90;;;;;;4852001;29;20049;-60
2023/06/30 03:09:08;;;;;;;7.15;2.53;;;13.30;99.90;;;;;;4858943;29;20650;-60
2023/06/30 03:11:36;;;;;;;4.72;1.67;;;13.30;99.90;;;;;;4859278;29;20061;-60
2023/06/30 03:14:04;;;;;;;9.80;2.00;;;13.30;99.90;;;;;;4859987;29;20058;-60
2023/06/30 03:16:40;;;;;;;5.13;1.88;;;13.20;99.90;;;;;;4843461;29;20053;-64
2023/06/30 03:19:08;;;;;;;4.07;1.83;;;13.10;99.90;;;;;;4873931;29;20041;-61
2023/06/30 03:21:36;;;;;;;4.75;2.00;;;13.10;99.90;;;;;;4857613;29;20046;-60
2023/06/30 03:24:04;;;;;;;4.18;1.70;;;13.10;99.90;;;;;;4859880;29;20057;-60
2023/06/30 03:26:31;;;;;;;4.55;1.80;;;13.00;99.90;;;;;;4860862;29;20131;-61
2023/06/30 03:29:01;;;;;;;5.95;1.98;;;13.00;99.90;;;;;;4851856;29;20058;-60
2023/06/30 03:31:31;;;;;;;4.35;1.85;;;13.00;99.90;;;;;;4859634;29;20048;-60
2023/06/30 03:33:59;;;;;;;5.65;1.75;;;12.90;99.90;;;;;;4860472;29;20520;-60
2023/06/30 03:36:28;;;;;;;4.93;1.90;;;12.90;99.90;;;;;;4859233;29;20410;-60
2023/06/30 03:38:55;;;;;;;6.97;2.20;;;12.90;99.90;;;;;;4858779;29;20053;-61
2023/06/30 03:41:23;;;;;;;4.30;1.75;;;12.80;99.90;;;;;;4858488;29;20056;-60
2023/06/30 03:43:51;;;;;;;4.20;1.67;;;12.90;99.90;;;;;;4859337;29;20402;-60
2023/06/30 03:46:18;;;;;;;6.95;1.58;;;12.90;99.90;;;;;;4858620;29;20049;-60
2023/06/30 03:48:46;;;;;;;3.15;1.45;;;12.90;99.90;;;;;;4843217;29;20056;-60
2023/06/30 03:51:14;;;;;;;5.57;1.80;;;12.80;99.90;;;;;;4858710;29;20045;-60
2023/06/30 03:53:46;;;;;;;4.03;1.23;;;12.80;99.90;;;;;;4859212;29;20057;-61
2023/06/30 03:56:14;;;;;;;5.50;1.40;;;12.80;99.90;;;;;;4858299;29;20398;-61
2023/06/30 03:58:42;;;;;;;9.00;2.40;;;12.80;99.90;;;;;;4857124;29;20438;-60
2023/06/30 04:01:09;;;;;;;7.50;1.85;;;12.70;99.90;;;;;;4854610;29;20067;-60
2023/06/30 04:03:37;;;;;;;4.95;2.42;;;12.70;99.90;;;;;;4859798;29;20049;-60
2023/06/30 04:06:06;;;;;;;3.70;1.67;;;12.70;99.90;;;;;;4859458;29;20064;-60
2023/06/30 04:08:33;;;;;;;3.80;1.73;;;12.70;99.90;;;;;;4860562;29;20050;-60
2023/06/30 04:11:02;;;;;;;9.43;2.00;;;12.70;99.90;;;;;;4859071;29;20046;-61
2023/06/30 04:13:30;;;;;;;4.90;1.92;;;12.80;99.90;;;;;;4858006;29;20481;-60
2023/06/30 04:15:58;;;;;;;5.25;1.77;;;12.80;99.90;;;;;;4859380;29;20494;-60
2023/06/30 04:18:27;;;;;;;3.58;1.50;;;12.70;99.90;;;;;;4860031;29;20061;-60
2023/06/30 04:20:54;;;;;;;3.70;1.58;;;12.70;99.90;;;;;;4860930;29;20046;-60
2023/06/30 04:23:22;;;;;;;7.15;1.20;;;12.70;99.90;;;;;;4857459;29;20052;-62
2023/06/30 04:25:50;;;;;;;5.32;1.25;;;12.70;99.90;;;;;;4857948;29;20533;-61
2023/06/30 04:28:18;;;;;;;2.22;1.30;;;12.70;99.90;;;;;;4858739;29;20056;-60
2023/06/30 04:30:45;;;;;;;5.50;1.50;;;12.70;99.90;;;;;;4859032;29;20056;-60
2023/06/30 04:33:13;;;;;;;2.20;1.15;;;12.70;99.90;;;;;;4859211;29;20053;-60
2023/06/30 04:35:43;;;;;;;4.88;1.70;;;12.70;99.90;;;;;;4858988;29;20065;-61
2023/06/30 04:38:12;;;;;;;4.82;1.35;;;12.80;99.90;;;;;;4857299;29;20402;-60
2023/06/30 04:40:40;;;;;;;5.95;1.63;;;12.80;99.90;;;;;;4857868;29;20483;-61
2023/06/30 04:43:12;;;;;;;4.85;1.55;;;12.80;99.90;;;;;;4855995;29;20064;-62
2023/06/30 04:45:40;;;;;;;4.03;1.42;;;12.80;99.90;;;;;;4858008;29;20049;-61
2023/06/30 04:48:08;;;;;;;4.55;1.30;;;12.80;99.90;;;;;;4847051;29;20054;-60
2023/06/30 04:50:36;;;;;;;3.67;1.25;;;12.80;99.90;;;;;;4857455;29;20033;-62
2023/06/30 04:53:03;;;;;;;2.88;1.50;;;12.80;99.90;;;;;;4842985;29;20052;-62
2023/06/30 04:55:31;;;;;;;5.55;2.28;;;12.80;99.90;;;;;;4840084;29;20050;-60
2023/06/30 04:57:59;;;;;;;6.82;1.67;;;12.80;99.90;;;;;;4841752;29;20562;-60
2023/06/30 05:00:27;;;;;;;6.38;2.05;;;12.80;99.90;;;;;;4855886;29;20491;-61
2023/06/30 05:02:56;;;;;;;5.40;1.60;;;12.80;99.90;;;;;;4845584;29;20061;-61
2023/06/30 05:05:24;;;;;;;4.80;1.40;;;12.80;99.90;;;;;;4847361;29;20046;-61
2023/06/30 05:07:51;;;;;;;7.78;2.45;;;12.90;99.90;;;;;;4842069;29;20053;-59
2023/06/30 05:10:19;;;;;;;3.20;1.63;;;12.90;99.90;;;;;;4867516;29;20705;-60
2023/06/30 05:12:48;;;;;;;5.47;1.40;;;12.90;99.90;;;;;;4848592;29;20068;-61
2023/06/30 05:15:16;;;;;;;7.32;1.55;;;12.90;99.90;;;;;;4852768;29;20057;-60
2023/06/30 05:17:44;;;;;;;4.53;1.38;;;13.00;99.90;;;;;;4858267;29;20406;-61
2023/06/30 05:20:12;;;;;;;4.65;2.30;;;13.00;99.90;;;;;;4848498;29;20053;-60
2023/06/30 05:22:40;;;;;;;5.75;1.48;;;13.00;99.90;;;;;;4852003;29;20060;-61
2023/06/30 05:25:08;;;;;;;8.93;1.75;;;13.00;99.90;;;;;;4835200;29;20201;-61
2023/06/30 05:27:36;;;;;;;5.18;1.58;;;13.00;99.90;;;;;;4851350;29;20065;-63
2023/06/30 05:30:04;;;;;;;6.60;1.50;;;13.00;99.90;;;;;;4855336;29;20053;-62
2023/06/30 05:32:32;;;;;;;3.92;1.70;;;13.10;99.90;;;;;;4852986;29;20064;-62
2023/06/30 05:35:00;;;;;;;4.22;1.50;;;13.10;99.90;;;;;;4832909;29;20495;-61
2023/06/30 05:37:28;;;;;;;6.15;1.42;;;13.20;99.90;;;;;;4848597;29;20064;-60
2023/06/30 05:39:55;;;;;;;5.85;1.40;;;13.20;99.90;;;;;;4852940;29;20049;-61
2023/06/30 05:42:23;;;;;;;4.07;1.63;;;13.20;99.90;;;;;;4851085;29;20064;-65
2023/06/30 05:44:51;;;;;;;4.38;1.25;;;13.30;99.90;;;;;;4853337;29;20057;-60
2023/06/30 05:47:19;;;;;;;6.93;1.83;;;13.40;99.90;;;;;;4850721;29;20045;-60
2023/06/30 05:49:46;;;;;;;7.60;1.60;;;13.40;99.90;;;;;;4849917;29;20060;-60
2023/06/30 05:52:15;;;;;;;5.20;1.35;;;13.50;99.90;;;;;;4846237;29;20046;-60
2023/06/30 05:54:42;;;;;;;9.38;1.80;;;13.50;99.90;;;;;;4848157;29;20427;-61
2023/06/30 05:57:10;;;;;;;4.57;1.77;;;13.60;99.90;;;;;;4843247;29;20053;-60
2023/06/30 05:59:38;;;;;;;6.18;1.92;;;13.60;99.90;;;;;;4850365;29;20054;-61
2023/06/30 06:02:06;;;;;;;4.90;1.92;;;13.60;99.90;;;;;;4850208;29;20046;-61
2023/06/30 06:04:35;;;;;;;8.65;1.85;;;13.60;99.90;;;;;;4853404;29;20049;-61
2023/06/30 06:07:05;;;;;;;10.17;1.80;;;13.60;99.90;;;;;;4851627;29;20057;-62
2023/06/30 06:09:33;;;;;;;6.17;1.73;;;13.60;99.90;;;;;;4840091;29;20334;-60
2023/06/30 06:12:02;;;;;;;16.73;2.30;;;13.60;99.90;;;;;;4841654;29;20297;-61
2023/06/30 06:14:30;;;;;;;9.07;2.35;;;13.60;99.90;;;;;;4852229;29;20049;-61
2023/06/30 06:16:57;;;;;;;16.17;2.05;;;13.60;99.90;;;;;;4851972;29;20061;-62
2023/06/30 06:19:25;;;;;;;13.02;2.35;;;13.60;99.90;;;;;;4869240;29;20394;-61
2023/06/30 06:21:53;;;;;;;12.88;2.33;;;13.60;99.90;;;;;;4852456;29;20053;-61
2023/06/30 06:24:21;;;;;;;12.82;2.67;;;13.70;99.90;;;;;;4853404;29;20060;-60
2023/06/30 06:26:49;;;;;;;12.32;2.20;;;13.70;99.90;;;;;;4848226;29;20045;-60
2023/06/30 06:29:21;;;;;;;25.38;2.75;;;13.80;99.90;;;;;;4855764;29;20053;-60
2023/06/30 06:31:50;;;;;;;8.75;2.42;;;13.80;99.90;;;;;;4855697;29;20052;-60
2023/06/30 06:34:19;;;;;;;7.47;2.20;;;13.80;99.90;;;;;;4855772;29;20046;-60
2023/06/30 06:36:46;;;;;;;7.40;1.90;;;13.90;99.90;;;;;;4852344;29;20058;-60
2023/06/30 06:39:14;;;;;;;15.48;2.78;;;13.90;99.90;;;;;;4856710;29;20413;-59
2023/06/30 06:41:44;;;;;;;14.77;1.88;;;13.90;99.90;;;;;;4851199;29;20052;-61
2023/06/30 06:44:17;;;;;;;6.40;1.75;;;13.90;99.90;;;;;;4856646;29;20074;-61
2023/06/30 06:46:45;;;;;;;9.32;2.33;;;13.90;99.90;;;;;;4856937;29;20053;-62
2023/06/30 06:49:13;;;;;;;13.85;2.63;;;13.90;99.90;;;;;;4857067;29;20059;-61
2023/06/30 06:51:53;;;;;;;7.97;2.17;;;13.90;99.90;;;;;;4861054;29;20041;-61
2023/06/30 06:54:20;;;;;;;5.82;2.65;;;13.90;99.90;;;;;;4854775;29;20546;-61
2023/06/30 06:56:50;;;;;;;7.57;1.95;;;13.90;99.90;;;;;;4855738;29;20065;-63
2023/06/30 06:59:18;;;;;;;10.80;2.22;;;14.00;99.90;;;;;;4856479;29;20410;-68
2023/06/30 07:01:46;;;;;;;12.32;2.65;;;13.90;99.90;;;;;;4853602;29;20498;-60
2023/06/30 07:04:14;;;;;;;9.63;2.17;;;14.00;99.90;;;;;;4837441;29;20495;-66
2023/06/30 07:06:42;;;;;;;8.25;1.83;;;14.00;99.90;;;;;;4854772;29;20057;-69
2023/06/30 07:09:10;;;;;;;7.07;2.00;;;14.10;99.90;;;;;;4856426;29;20069;-67
2023/06/30 07:11:37;;;;;;;8.85;2.47;;;14.20;99.90;;;;;;4851775;29;20490;-69
2023/06/30 07:14:05;;;;;;;8.90;2.55;;;14.20;99.90;;;;;;4851875;29;20490;-67
2023/06/30 07:16:33;;;;;;;8.68;2.03;;;14.20;99.90;;;;;;4857884;29;20439;-59
2023/06/30 07:19:02;;;;;;;12.75;2.83;;;14.30;99.90;;;;;;4859169;29;20045;-60
2023/06/30 07:21:31;;;;;;;7.90;1.65;;;14.30;99.90;;;;;;4860703;29;20054;-60
2023/06/30 07:23:59;;;;;;;8.18;2.38;;;14.30;99.90;;;;;;4857094;29;20049;-59
2023/06/30 07:26:26;;;;;;;6.60;2.15;;;14.30;99.90;;;;;;4868380;29;20480;-61
2023/06/30 07:28:54;;;;;;;9.38;2.53;;;14.30;99.90;;;;;;4855827;29;20111;-60
2023/06/30 07:31:22;;;;;;;10.23;2.63;;;14.30;99.90;;;;;;4857655;29;20434;-60
2023/06/30 07:33:49;;;;;;;9.73;2.78;;;14.30;99.90;;;;;;4852133;29;20056;-60
2023/06/30 07:36:17;;;;;;;7.63;2.17;;;14.30;99.90;;;;;;4837401;29;20049;-60
2023/06/30 07:38:45;;;;;;;8.68;2.30;;;14.40;99.90;;;;;;4852014;29;20049;-60
2023/06/30 07:41:12;;;;;;;8.95;2.55;;;14.40;99.90;;;;;;4851084;29;20057;-59
2023/06/30 07:43:40;;;;;;;7.15;2.50;;;14.50;99.90;;;;;;4853052;29;20072;-59
2023/06/30 07:46:08;;;;;;;5.93;2.50;;;14.50;99.90;;;;;;4874240;29;20410;-59
2023/06/30 07:48:35;;;;;;;12.07;3.15;;;14.50;99.90;;;;;;4852787;29;20373;-60
2023/06/30 07:51:03;;;;;;;6.97;2.42;;;14.50;99.90;;;;;;4867985;29;20575;-59
2023/06/30 07:53:38;;;;;;;5.57;2.50;;;14.60;99.90;;;;;;4852747;29;20042;-60
2023/06/30 07:56:06;;;;;;;9.35;2.45;;;14.50;99.90;;;;;;4855733;29;20049;-60
2023/06/30 07:58:34;;;;;;;8.10;2.55;;;14.50;99.90;;;;;;4852608;29;20068;-58
2023/06/30 08:01:02;;;;;;;10.98;3.67;;;14.40;99.90;;;;;;4852705;29;20061;-59
2023/06/30 08:03:30;;;;;;;12.15;3.95;;;14.40;99.90;;;;;;4854021;29;20053;-59
2023/06/30 08:05:58;;;;;;;6.68;2.22;;;14.30;99.90;;;;;;4854869;29;20489;-59
2023/06/30 08:08:29;;;;;;;10.65;3.33;;;14.30;99.90;;;;;;4854189;29;20045;-58
2023/06/30 08:10:57;;;;;;;14.88;3.38;;;14.20;99.90;;;;;;4854047;29;20061;-59
2023/06/30 08:13:26;;;;;;;7.15;3.00;;;14.10;99.90;;;;;;4850652;29;20061;-60
2023/06/30 08:15:54;;;;;;;9.15;3.22;;;14.10;99.90;;;;;;4852847;29;20532;-59
2023/06/30 08:18:22;;;;;;;9.05;3.25;;;14.10;99.90;;;;;;4852299;29;20052;-59
2023/06/30 08:21:01;;;;;;;11.98;4.03;;;14.10;99.90;;;;;;4859427;29;20086;-59
2023/06/30 08:23:29;;;;;;;11.50;3.43;;;14.10;99.90;;;;;;4866514;29;20065;-59
2023/06/30 08:25:57;;;;;;;12.38;3.72;;;14.10;99.90;;;;;;4856547;29;20050;-59
2023/06/30 08:28:24;;;;;;;10.68;2.92;;;14.10;99.90;;;;;;4852586;29;20052;-60
2023/06/30 08:30:53;;;;;;;9.05;3.78;;;14.10;99.90;;;;;;4856502;29;20049;-58
2023/06/30 08:33:27;;;;;;;13.33;3.60;;;14.10;99.90;;;;;;4851884;29;20490;-62
2023/06/30 08:36:07;;;;;;;8.93;3.67;;;14.10;99.90;;;;;;4841537;29;20049;-59
2023/06/30 08:38:35;;;;;;;13.45;4.07;;;14.10;99.90;;;;;;4849682;29;20053;-59
2023/06/30 08:41:03;;;;;;;24.67;5.32;;;14.10;99.90;;;;;;4849008;29;20582;-59
2023/06/30 08:43:32;;;;;;;13.45;4.55;;;14.20;99.90;;;;;;4847453;29;20057;-58
2023/06/30 08:46:02;;;;;;;15.23;3.80;;;14.20;99.90;;;;;;4856356;29;20057;-60
2023/06/30 08:48:31;;;;;;;7.65;3.15;;;14.30;99.90;;;;;;4852776;29;20056;-61
2023/06/30 08:51:00;;;;;;;12.32;4.05;;;14.30;99.90;;;;;;4869688;29;20052;-62
2023/06/30 08:53:28;;;;;;;11.13;4.20;;;14.30;99.90;;;;;;4852627;29;20053;-61
2023/06/30 08:55:59;;;;;;;6.60;3.35;;;14.40;99.90;;;;;;4855307;29;20065;-61
2023/06/30 08:58:27;;;;;;;9.02;3.65;;;14.50;99.90;;;;;;4851670;29;20053;-60
2023/06/30 09:00:55;;;;;;;10.52;3.47;;;14.60;99.90;;;;;;4854831;29;20045;-60
2023/06/30 09:03:23;;;;;;;10.00;3.70;;;14.70;99.90;;;;;;4855089;29;20506;-61
2023/06/30 09:05:54;;;;;;;6.05;3.20;;;14.80;99.90;;;;;;4856462;29;20069;-60
2023/06/30 09:08:23;;;;;;;11.43;3.30;;;14.90;99.90;;;;;;4853712;29;20050;-59
2023/06/30 09:10:54;;;;;;;9.95;3.35;;;15.10;99.90;;;;;;4855586;29;20057;-59
2023/06/30 09:13:23;;;;;;;7.90;2.88;;;15.10;99.90;;;;;;4847191;29;20566;-60
2023/06/30 09:15:57;;;;;;;8.37;3.33;;;15.20;99.90;;;;;;4856812;29;20619;-61
2023/06/30 09:18:25;;;;;;;14.07;4.45;;;15.30;99.90;;;;;;4856403;29;20394;-59
2023/06/30 09:20:53;;;;;;;15.52;3.17;;;15.50;99.90;;;;;;4854291;29;20510;-58
2023/06/30 09:23:21;;;;;;;8.13;2.40;;;15.50;99.90;;;;;;4844266;29;20037;-58
2023/06/30 09:25:51;;;;;;;8.77;2.63;;;15.60;99.90;;;;;;4854549;29;20072;-60
2023/06/30 09:28:19;;;;;;;12.60;3.28;;;15.60;99.90;;;;;;4850867;29;20646;-58
2023/06/30 09:30:47;;;;;;;3.28;2.58;;;15.70;99.90;;;;;;4849701;29;20506;-59
2023/06/30 09:33:16;;;;;;;5.05;2.67;;;15.80;99.90;;;;;;4850724;29;20048;-59
2023/06/30 09:35:46;;;;;;;6.32;2.85;;;16.00;99.90;;;;;;4854655;29;20060;-62
2023/06/30 09:38:17;;;;;;;9.55;2.50;;;16.10;99.90;;;;;;4850641;29;20046;-60
2023/06/30 09:40:47;;;;;;;5.57;2.45;;;16.20;99.90;;;;;;4853483;29;20053;-60
2023/06/30 09:43:17;;;;;;;6.38;3.05;;;16.30;99.90;;;;;;4862710;29;20038;-60
2023/06/30 09:45:47;;;;;;;6.43;2.30;;;16.40;99.90;;;;;;4853097;29;20041;-60
2023/06/30 09:48:16;;;;;;;6.18;2.58;;;16.40;99.90;;;;;;4852261;29;20053;-60
2023/06/30 09:50:44;;;;;;;8.48;2.63;;;16.40;99.90;;;;;;4858812;29;20053;-62
2023/06/30 09:53:17;;;;;;;7.93;2.60;;;16.30;99.90;;;;;;4848502;29;20502;-63
2023/06/30 09:55:50;;;;;;;9.90;2.47;;;16.30;99.90;;;;;;4847584;29;20049;-62
2023/06/30 09:58:20;;;;;;;3.95;2.05;;;16.30;99.90;;;;;;4846704;29;20045;-60
2023/06/30 10:00:51;;;;;;;7.70;3.00;;;16.20;99.90;;;;;;4840935;29;20068;-60
2023/06/30 10:03:19;;;;;;;9.90;2.70;;;16.20;99.90;;;;;;4855515;29;20073;-60
2023/06/30 10:05:50;;;;;;;4.75;2.33;;;16.10;99.90;;;;;;4858733;29;20061;-59
2023/06/30 10:08:21;;;;;;;9.63;2.70;;;16.20;99.90;;;;;;4859057;29;20422;-60
2023/06/30 10:10:54;;;;;;;5.80;2.13;;;16.20;99.90;;;;;;4859071;29;20060;-60
2023/06/30 10:13:22;;;;;;;5.90;2.67;;;16.20;99.90;;;;;;4853920;29;20046;-60
2023/06/30 10:15:51;;;;;;;8.65;2.75;;;16.20;99.90;;;;;;4853230;29;20052;-59
2023/06/30 10:18:20;;;;;;;8.02;2.53;;;16.30;99.90;;;;;;4856636;29;20057;-59
2023/06/30 10:20:48;;;;;;;7.10;2.30;;;16.40;99.90;;;;;;4866913;29;20045;-58
2023/06/30 10:23:19;;;;;;;13.40;2.60;;;16.40;99.90;;;;;;4853933;29;20301;-59
2023/06/30 10:25:49;;;;;;;5.28;2.22;;;16.50;99.90;;;;;;4852915;29;20057;-58
2023/06/30 10:28:18;;;;;;;2.97;1.73;;;16.40;99.90;;;;;;4853244;29;20041;-58
2023/06/30 10:30:53;;;;;;;5.93;2.53;;;16.40;99.90;;;;;;4843500;29;20073;-58
2023/06/30 10:33:21;;;;;;;4.60;2.10;;;16.40;99.90;;;;;;4849758;29;20060;-60
2023/06/30 10:35:50;;;;;;;8.40;2.25;;;16.40;99.90;;;;;;4853295;29;20101;-59
2023/06/30 10:38:18;;;;;;;8.45;2.53;;;16.40;99.90;;;;;;4839054;29;20050;-59
2023/06/30 10:40:46;;;;;;;8.68;2.10;;;16.50;99.90;;;;;;4856159;29;20783;-58
2023/06/30 10:43:14;;;;;;;5.93;2.60;;;16.60;99.90;;;;;;4854996;29;20056;-58
2023/06/30 10:46:05;;;;;;;5.45;2.70;;;16.70;99.90;;;;;;4857340;29;20049;-58
2023/06/30 10:48:36;;;;;;;6.85;2.85;;;16.80;99.90;;;;;;4853944;29;20614;-59
2023/06/30 10:51:05;;;;;;;6.85;2.88;;;16.80;99.90;;;;;;4857767;29;20050;-59
2023/06/30 10:53:35;;;;;;;5.65;2.28;;;16.80;99.90;;;;;;4853838;29;20041;-58
2023/06/30 10:56:03;;;;;;;7.72;3.40;;;16.80;99.90;;;;;;4839968;29;20425;-58
2023/06/30 10:58:30;;;;;;;8.65;2.97;;;16.70;99.90;;;;;;4864701;29;20045;-58
2023/06/30 11:01:05;;;;;;;3.33;2.45;;;16.60;99.90;;;;;;4855671;29;20064;-60
2023/06/30 11:03:56;;;;;;;10.13;2.58;;;16.60;99.90;;;;;;4854915;29;20049;-59
2023/06/30 11:06:26;;;;;;;4.63;2.30;;;15.80;99.90;;;;;;4845560;29;20045;-61
2023/06/30 11:09:03;;;;;;;11.53;2.83;;;16.50;99.90;;;;;;4856402;29;20073;-58
2023/06/30 11:11:48;;;;;;;4.15;2.47;;;16.50;99.90;;;;;;4855710;29;20057;-59
2023/06/30 11:14:30;;;;;;;7.50;2.78;;;16.50;99.90;;;;;;4854761;29;20046;-58
2023/06/30 11:17:05;;;;;;;5.00;2.90;;;16.60;99.90;;;;;;4856282;29;20079;-58
2023/06/30 11:19:36;;;;;;;9.27;3.33;;;16.60;99.90;;;;;;4855231;29;20061;-59
2023/06/30 11:22:25;;;;;;;6.05;3.25;;;16.60;99.90;;;;;;4856609;29;20048;-60
2023/06/30 11:24:53;;;;;;;9.02;4.28;;;16.60;99.90;;;;;;4852754;29;20054;-58
2023/06/30 11:27:21;;;;;;;15.25;3.63;;;16.60;99.90;;;;;;4857692;29;20073;-59
2023/06/30 11:29:50;;;;;;;7.22;2.35;;;16.70;99.90;;;;;;4847738;29;20056;-59
2023/06/30 11:32:29;;;;;;;4.10;2.70;;;16.70;99.90;;;;;;4858098;29;20779;-59
2023/06/30 11:34:59;;;;;;;7.88;2.90;;;16.70;99.90;;;;;;4855795;29;20057;-60
2023/06/30 11:37:27;;;;;;;5.80;2.97;;;16.70;99.90;;;;;;4855228;29;20132;-59
2023/06/30 11:39:57;;;;;;;10.75;3.40;;;16.70;99.90;;;;;;4857205;29;20053;-61
2023/06/30 11:42:25;;;;;;;15.38;4.38;;;16.70;99.90;;;;;;4856742;29;20061;-58
2023/06/30 11:44:52;;;;;;;7.38;3.63;;;16.80;99.90;;;;;;4852603;29;20060;-60
2023/06/30 11:47:21;;;;;;;5.22;3.47;;;16.70;99.90;;;;;;4843775;29;20046;-58
2023/06/30 11:49:49;;;;;;;13.25;4.25;;;16.70;99.90;;;;;;4847060;29;20053;-59
2023/06/30 11:52:18;;;;;;;9.38;3.45;;;16.70;99.90;;;;;;4857186;29;20421;-60
2023/06/30 11:54:46;;;;;;;9.38;3.28;;;16.80;99.90;;;;;;4853854;29;20061;-58
2023/06/30 11:57:14;;;;;;;8.77;3.90;;;16.80;99.90;;;;;;4855541;29;20532;-58
2023/06/30 11:59:42;;;;;;;11.65;3.53;;;16.90;99.90;;;;;;4854692;29;20049;-58
2023/06/30 12:02:11;;;;;;;4.93;2.88;;;16.90;99.90;;;;;;4855796;29;20061;-59
2023/06/30 12:04:46;;;;;;;6.32;3.17;;;17.00;99.90;;;;;;4855081;29;20554;-58
2023/06/30 12:07:15;;;;;;;5.40;3.15;;;17.00;99.90;;;;;;4855397;29;20427;-58
2023/06/30 12:09:43;;;;;;;5.55;3.33;;;16.90;99.90;;;;;;4857116;29;20060;-58
2023/06/30 12:12:10;;;;;;;6.13;3.25;;;16.90;99.90;;;;;;4855191;29;20053;-57
2023/06/30 12:14:41;;;;;;;5.60;3.30;;;16.90;99.90;;;;;;4854860;29;20056;-58
2023/06/30 12:17:09;;;;;;;7.80;3.40;;;16.80;99.90;;;;;;4870252;29;20041;-59
2023/06/30 12:19:37;;;;;;;6.78;3.70;;;16.90;99.90;;;;;;4852603;29;20037;-58
2023/06/30 12:22:09;;;;;;;8.52;3.55;;;16.90;99.90;;;;;;4855548;29;20072;-58
2023/06/30 12:24:38;;;;;;;4.82;2.97;;;17.00;99.90;;;;;;4852229;29;20054;-60
2023/06/30 12:27:10;;;;;;;4.00;2.83;;;17.10;99.90;;;;;;4855444;29;20482;-58
2023/06/30 12:29:46;;;;;;;4.07;2.70;;;17.20;99.90;;;;;;4845505;29;20046;-59
2023/06/30 12:32:14;;;;;;;5.72;2.80;;;17.30;99.90;;;;;;4845932;29;20053;-59
2023/06/30 12:34:42;;;;;;;9.07;3.00;;;17.40;99.90;;;;;;4849626;29;20042;-58
2023/06/30 12:37:11;;;;;;;5.13;2.72;;;17.50;99.90;;;;;;4854216;29;20378;-60
2023/06/30 12:39:39;;;;;;;4.57;2.60;;;17.60;99.90;;;;;;4852129;29;20057;-58
2023/06/30 12:42:07;;;;;;;8.20;3.53;;;17.60;99.90;;;;;;4846339;29;20414;-58
2023/06/30 12:44:34;;;;;;;9.32;3.33;;;17.70;99.90;;;;;;4851842;29;20060;-60
2023/06/30 12:47:06;;;;;;;13.55;2.72;;;17.70;99.90;;;;;;4851369;29;20444;-58
2023/06/30 12:49:37;;;;;;;5.82;2.50;;;17.70;99.90;;;;;;4854176;29;20045;-62
2023/06/30 12:52:05;;;;;;;6.60;3.35;;;17.60;99.90;;;;;;4851328;29;20053;-59
2023/06/30 12:54:33;;;;;;;5.30;2.40;;;17.60;99.90;;;;;;4846760;29;20053;-59
2023/06/30 12:57:00;;;;;;;5.75;3.10;;;17.50;99.90;;;;;;4851865;29;20050;-59